Oak Ridge, MO (63769)

11:34 AM CDT on September 03, 2015 (GMT -0500)
Northwest Jackson | | Change Station
CLOSE
Current Station
Personal Weather Station
Location: Jackson, MO
Elevation: 465 ft
Nearby Weather Stations

Elev 465 ft 37.39 °N, 89.68 °W | Updated 4 seconds ago

Clear
Clear
89.4 °F
Feels Like 89 °F
N
2.3
Wind Variable Wind from NNW
Gusts 2.3 mph

Today
High -- | Low -- °F
--% Chance of Precip.
Yesterday
High -- | Low -- °F
Precip. -- in
6:30 AM 7:25 PM
Waning Gibbous, 69% visible
Pressure 30.02 in
Visibility 10.0 miles
Clouds Clear
Heat Index 89 °F
Dew Point 59 °F
Humidity 36%
Rainfall 0.00 in
Snow Depth Not available.
UV 7 out of 12
Pollen 10.60 out of 12
Air Quality Not available.
Flu Activity Not available.
METAR KCGI 031553Z 00000KT 10SM CLR 30/21 A3003 RMK AO2 SLP164 T03000211
Pressure 30.02 in
Visibility 10.0 miles
Clouds Clear
Heat Index 89 °F
Dew Point 59 °F
Humidity 36%
Rainfall 0.00 in
Snow Depth Not available.
UV 7 out of 12
Pollen 10.60 out of 12
Air Quality Not available.
Flu Activity Not available.
METAR KCGI 031553Z 00000KT 10SM CLR 30/21 A3003 RMK AO2 SLP164 T03000211

10-Day Weather Forecast

×

Almanac

Astronomy

Sep. 03, 2015 Rise Set
Actual Time
Civil Twilight
Nautical Twilight
Astronomical Twilight
Moon
Length of Visible Light
Length of Day
Tomorrow will be .
, % of the Moon is Illuminated

Today's Extremes

State Highs State Lows

Community

WunderPhotos

Upload Photos

1,851,988 photos uploaded!

WunderBlogs® & News

Nearby

Air Quality

  Air Quality AQ Index Pollutant
Not available.

Snow Depth

Station Depth Elevation

Earthquake Activity

City Distance Mag. Time & Date
Minimum magnitude displayed is 2.5.

Coastal Water Temperatures

Place Temperature

Stations

Nearby Weather Stations

Station Location Temp. Windchill Dew Point Humidity Wind Precip. Elev Updated Type